Time;durP1;ratioP1;P1;durP2;ratioP2;P2;SDS_P1;SDS_P2;PMS_P1;PMS_P2;Temp;Humidity;BMP_temperature;BMP_pressure;BME280_temperature;BME280_humidity;BME280_pressure;Samples;Min_cycle;Max_cycle;Signal;HPM_P1;HPM_P2
2023/04/19 00:00:07;;;;;;;7.03;3.53;;;7.70;99.90;;;;;;5046770;28;20278;-75
2023/04/19 00:02:32;;;;;;;6.63;3.07;;;7.60;99.90;;;;;;5043013;28;20590;-76
2023/04/19 00:04:58;;;;;;;5.17;2.17;;;7.70;99.90;;;;;;5042038;28;20212;-77
2023/04/19 00:07:24;;;;;;;7.20;3.40;;;7.60;99.90;;;;;;5047793;28;20212;-77
2023/04/19 00:09:49;;;;;;;4.83;3.00;;;7.60;99.90;;;;;;5050198;28;20187;-76
2023/04/19 00:12:15;;;;;;;8.00;2.90;;;7.60;99.90;;;;;;5046558;28;20208;-76
2023/04/19 00:14:41;;;;;;;7.10;3.17;;;7.60;99.90;;;;;;5050691;28;20582;-76
2023/04/19 00:17:06;;;;;;;7.00;2.87;;;7.60;99.90;;;;;;5049139;28;20216;-76
2023/04/19 00:19:32;;;;;;;7.57;3.40;;;7.60;99.90;;;;;;5051021;28;20200;-76
2023/04/19 00:21:57;;;;;;;5.30;2.47;;;7.60;99.90;;;;;;5053552;28;20271;-77
2023/04/19 00:24:23;;;;;;;6.00;3.07;;;7.70;99.90;;;;;;5052346;28;20184;-74
2023/04/19 00:26:49;;;;;;;6.00;2.90;;;7.70;99.90;;;;;;5049816;28;20233;-74
2023/04/19 00:29:14;;;;;;;4.90;2.90;;;7.60;99.90;;;;;;5051989;28;20265;-76
2023/04/19 00:31:40;;;;;;;5.13;2.60;;;7.60;99.90;;;;;;5052391;28;20311;-77
2023/04/19 00:34:06;;;;;;;6.80;2.80;;;7.70;99.90;;;;;;5053535;28;20184;-77
2023/04/19 00:36:31;;;;;;;7.53;2.80;;;7.60;99.90;;;;;;5048469;28;20240;-76
2023/04/19 00:38:57;;;;;;;5.90;3.23;;;7.70;99.90;;;;;;5044356;28;20227;-76
2023/04/19 00:41:23;;;;;;;10.53;2.90;;;7.70;99.90;;;;;;5044305;28;20209;-76
2023/04/19 00:43:48;;;;;;;6.23;2.90;;;7.70;99.90;;;;;;5050421;28;20211;-77
2023/04/19 00:46:14;;;;;;;7.27;2.70;;;7.50;99.90;;;;;;5044013;28;20257;-75
2023/04/19 00:48:40;;;;;;;3.77;2.33;;;7.50;99.90;;;;;;5048750;28;20172;-76
2023/04/19 00:51:06;;;;;;;5.37;2.70;;;7.50;99.90;;;;;;5049387;28;20713;-76
2023/04/19 00:53:33;;;;;;;4.93;2.70;;;7.50;99.90;;;;;;5049902;28;20200;-76
2023/04/19 00:56:00;;;;;;;6.53;2.73;;;7.50;99.90;;;;;;5050320;28;20592;-76
2023/04/19 00:58:30;;;;;;;5.43;2.60;;;7.60;99.90;;;;;;5049597;28;20207;-75
2023/04/19 01:00:55;;;;;;;4.53;2.53;;;7.40;99.90;;;;;;5046807;28;20184;-77
2023/04/19 01:03:21;;;;;;;6.43;3.13;;;7.40;99.90;;;;;;5049456;28;20203;-77
2023/04/19 01:05:47;;;;;;;8.67;2.70;;;7.40;99.90;;;;;;5046606;28;20223;-72
2023/04/19 01:08:13;;;;;;;4.93;2.60;;;7.30;99.90;;;;;;5049638;28;20673;-76
2023/04/19 01:10:39;;;;;;;6.27;2.67;;;7.30;99.90;;;;;;5050456;28;20294;-76
2023/04/19 01:13:05;;;;;;;11.60;2.87;;;7.30;99.90;;;;;;5047247;28;20230;-75
2023/04/19 01:15:31;;;;;;;7.33;2.80;;;7.20;99.90;;;;;;5048051;28;20215;-77
2023/04/19 01:17:56;;;;;;;7.63;2.87;;;7.30;99.90;;;;;;5049678;28;20589;-76
2023/04/19 01:20:22;;;;;;;7.80;2.80;;;7.30;99.90;;;;;;5047257;28;20213;-75
2023/04/19 01:22:48;;;;;;;5.37;2.93;;;7.20;99.90;;;;;;5046670;28;20904;-76
2023/04/19 01:25:14;;;;;;;9.03;2.80;;;7.20;99.90;;;;;;5047548;28;20179;-76
2023/04/19 01:27:39;;;;;;;6.00;3.13;;;7.10;99.90;;;;;;5046096;28;20639;-76
2023/04/19 01:30:06;;;;;;;7.43;2.80;;;7.20;99.90;;;;;;5046763;28;20212;-78
2023/04/19 01:32:31;;;;;;;8.03;2.73;;;7.00;99.90;;;;;;5046514;28;20200;-76
2023/04/19 01:34:57;;;;;;;6.73;2.80;;;7.00;99.90;;;;;;5050833;28;20635;-77
2023/04/19 01:37:23;;;;;;;6.10;2.70;;;7.00;99.90;;;;;;5047045;28;20302;-76
2023/04/19 01:39:48;;;;;;;6.97;3.23;;;7.00;99.90;;;;;;5044642;28;20238;-75
2023/04/19 01:42:14;;;;;;;4.13;2.70;;;7.00;99.90;;;;;;5050375;28;20204;-76
2023/04/19 01:44:40;;;;;;;5.10;2.37;;;7.00;99.90;;;;;;5049149;28;20257;-77
2023/04/19 01:47:05;;;;;;;4.07;2.10;;;7.00;99.90;;;;;;5050558;28;20214;-76
2023/04/19 01:49:31;;;;;;;4.70;2.47;;;6.90;99.90;;;;;;5049582;28;20620;-77
2023/04/19 01:51:56;;;;;;;5.57;2.87;;;6.90;99.90;;;;;;5050357;28;20686;-77
2023/04/19 01:54:22;;;;;;;4.33;2.33;;;6.80;99.90;;;;;;5046953;28;20178;-78
2023/04/19 01:56:48;;;;;;;6.00;2.50;;;6.80;99.90;;;;;;5049213;28;20713;-75
2023/04/19 01:59:13;;;;;;;4.57;2.43;;;6.90;99.90;;;;;;5042384;28;20207;-75
2023/04/19 02:01:39;;;;;;;4.20;2.10;;;6.80;99.90;;;;;;5041217;28;20196;-75
2023/04/19 02:04:06;;;;;;;7.00;3.50;;;6.80;99.90;;;;;;5043053;28;20179;-76
2023/04/19 02:06:32;;;;;;;5.63;3.10;;;6.80;99.90;;;;;;5043992;28;20220;-77
2023/04/19 02:08:58;;;;;;;5.27;3.10;;;6.70;99.90;;;;;;5045302;28;20237;-77
2023/04/19 02:11:23;;;;;;;5.17;2.70;;;6.80;99.90;;;;;;5042181;28;20239;-76
2023/04/19 02:13:49;;;;;;;4.30;2.63;;;6.70;99.90;;;;;;5050145;28;20200;-75
2023/04/19 02:16:14;;;;;;;4.53;2.57;;;6.70;99.90;;;;;;5047601;28;21308;-76
2023/04/19 02:18:40;;;;;;;5.70;2.33;;;6.70;99.90;;;;;;5045504;28;20179;-78
2023/04/19 02:21:07;;;;;;;4.30;2.23;;;6.70;99.90;;;;;;5042138;28;20256;-77
2023/04/19 02:23:34;;;;;;;4.40;2.50;;;6.70;99.90;;;;;;5048533;28;20224;-77
2023/04/19 02:26:03;;;;;;;4.30;2.40;;;6.70;99.90;;;;;;5048682;28;20214;-75
2023/04/19 02:28:31;;;;;;;5.40;3.10;;;6.70;99.90;;;;;;5047597;28;21488;-77
2023/04/19 02:30:57;;;;;;;3.17;2.30;;;6.60;99.90;;;;;;5049980;28;20230;-77
2023/04/19 02:33:25;;;;;;;5.80;2.00;;;6.50;99.90;;;;;;5039069;28;20168;-76
2023/04/19 02:35:51;;;;;;;7.67;2.93;;;6.60;99.90;;;;;;5039911;28;20315;-77
2023/04/19 02:38:17;;;;;;;5.10;2.53;;;6.60;99.90;;;;;;5045071;28;20223;-75
2023/04/19 02:40:42;;;;;;;4.53;2.40;;;6.60;99.90;;;;;;5041441;28;20208;-76
2023/04/19 02:43:08;;;;;;;5.80;2.70;;;6.60;99.90;;;;;;5047064;28;20253;-77
2023/04/19 02:45:34;;;;;;;3.87;3.00;;;6.40;99.90;;;;;;5042199;28;20192;-77
2023/04/19 02:47:59;;;;;;;6.30;2.77;;;6.30;99.90;;;;;;5044936;28;20277;-77
2023/04/19 02:50:26;;;;;;;4.63;2.50;;;6.30;99.90;;;;;;5040782;28;20211;-78
2023/04/19 02:52:52;;;;;;;5.13;2.83;;;6.40;99.90;;;;;;5041954;28;20679;-76
2023/04/19 02:55:17;;;;;;;6.20;2.60;;;6.50;99.90;;;;;;5044482;28;20213;-76
2023/04/19 02:57:43;;;;;;;3.57;2.47;;;6.50;99.90;;;;;;5048414;28;20229;-76
2023/04/19 03:00:09;;;;;;;4.77;2.93;;;6.40;99.90;;;;;;5051537;28;20214;-77
2023/04/19 03:02:35;;;;;;;3.63;2.13;;;6.30;99.90;;;;;;5050600;28;20211;-76
2023/04/19 03:05:02;;;;;;;3.10;2.33;;;6.30;99.90;;;;;;5052413;28;20207;-77
2023/04/19 03:07:28;;;;;;;3.63;2.10;;;6.20;99.90;;;;;;5051948;28;20214;-76
2023/04/19 03:09:54;;;;;;;3.53;2.10;;;6.30;99.90;;;;;;5050117;28;20203;-77
2023/04/19 03:12:19;;;;;;;3.90;2.07;;;6.20;99.90;;;;;;5041048;28;20220;-77
2023/04/19 03:14:45;;;;;;;4.40;2.23;;;6.20;99.90;;;;;;5043827;28;20585;-75
2023/04/19 03:17:11;;;;;;;5.37;2.07;;;6.10;99.90;;;;;;5046530;28;20785;-77
2023/04/19 03:19:36;;;;;;;6.73;3.47;;;6.10;99.90;;;;;;5044190;28;20203;-77
2023/04/19 03:22:02;;;;;;;3.63;2.17;;;6.10;99.90;;;;;;5039329;28;20287;-76
2023/04/19 03:24:29;;;;;;;4.03;2.13;;;6.00;99.90;;;;;;5046399;28;20267;-76
2023/04/19 03:26:57;;;;;;;3.80;2.17;;;6.00;99.90;;;;;;5048889;28;20215;-75
2023/04/19 03:29:23;;;;;;;3.43;2.00;;;6.00;99.90;;;;;;5045154;28;20624;-76
2023/04/19 03:31:49;;;;;;;3.10;2.03;;;6.00;99.90;;;;;;5049122;28;20299;-76
2023/04/19 03:34:14;;;;;;;6.93;2.70;;;6.00;99.90;;;;;;5051134;28;20302;-76
2023/04/19 03:36:40;;;;;;;5.17;2.60;;;5.90;99.90;;;;;;5048964;28;20236;-76
2023/04/19 03:39:06;;;;;;;6.37;2.30;;;5.90;99.90;;;;;;5048356;28;20244;-76
2023/04/19 03:41:32;;;;;;;3.87;2.33;;;5.80;99.90;;;;;;5050374;28;20214;-76
2023/04/19 03:43:57;;;;;;;3.67;2.27;;;5.80;99.90;;;;;;5051813;28;20716;-76
2023/04/19 03:46:24;;;;;;;5.13;2.53;;;5.80;99.90;;;;;;5051523;28;20306;-76
2023/04/19 03:48:50;;;;;;;5.17;2.27;;;5.80;99.90;;;;;;5049165;28;20222;-76
2023/04/19 03:51:16;;;;;;;9.00;2.73;;;5.90;99.90;;;;;;5044160;28;20211;-75
2023/04/19 03:53:41;;;;;;;3.90;2.27;;;5.70;99.90;;;;;;5042256;28;20589;-74
2023/04/19 03:56:07;;;;;;;3.83;2.10;;;5.70;99.90;;;;;;5041418;28;20216;-76
2023/04/19 03:58:33;;;;;;;2.77;1.97;;;5.60;99.90;;;;;;5043242;28;20257;-76
2023/04/19 04:01:00;;;;;;;6.23;2.30;;;5.70;99.90;;;;;;5044371;28;20207;-76
2023/04/19 04:03:25;;;;;;;4.23;2.47;;;5.70;99.90;;;;;;5045732;28;20226;-76
2023/04/19 04:05:51;;;;;;;6.10;2.53;;;5.70;99.90;;;;;;5046525;28;20227;-75
2023/04/19 04:08:17;;;;;;;3.23;2.07;;;5.60;99.90;;;;;;5047611;28;20231;-73
2023/04/19 04:10:42;;;;;;;3.30;2.10;;;5.60;99.90;;;;;;5047781;28;20774;-75
2023/04/19 04:13:08;;;;;;;4.80;2.80;;;5.70;99.90;;;;;;5049165;28;20176;-76
2023/04/19 04:15:34;;;;;;;4.27;2.70;;;5.70;99.90;;;;;;5048636;28;20287;-75
2023/04/19 04:18:00;;;;;;;5.97;2.50;;;5.70;99.90;;;;;;5050236;28;20211;-75
2023/04/19 04:20:25;;;;;;;5.50;1.97;;;5.70;99.90;;;;;;5044247;28;20200;-74
2023/04/19 04:22:51;;;;;;;7.53;2.40;;;5.70;99.90;;;;;;5048158;28;20200;-75
2023/04/19 04:25:17;;;;;;;6.90;2.90;;;5.80;99.90;;;;;;5051442;28;20207;-74
2023/04/19 04:27:43;;;;;;;5.07;2.43;;;5.80;99.90;;;;;;5047984;28;20173;-75
2023/04/19 04:30:10;;;;;;;4.97;2.47;;;5.90;99.90;;;;;;5047563;28;20203;-75
2023/04/19 04:32:37;;;;;;;5.27;2.60;;;5.90;99.90;;;;;;5052056;28;20256;-76
2023/04/19 04:35:04;;;;;;;6.20;2.90;;;6.10;99.90;;;;;;5044314;28;20292;-76
2023/04/19 04:37:33;;;;;;;6.27;2.80;;;6.90;99.90;;;;;;5046924;28;20226;-75
2023/04/19 04:40:00;;;;;;;3.50;2.20;;;7.60;99.90;;;;;;5046543;28;20305;-76
2023/04/19 04:42:26;;;;;;;5.63;1.80;;;8.20;99.90;;;;;;5050102;28;20237;-76
2023/04/19 04:44:56;;;;;;;6.60;2.20;;;8.00;99.90;;;;;;5050703;28;20214;-76
2023/04/19 04:47:22;;;;;;;6.23;3.07;;;8.30;99.90;;;;;;5051706;28;20215;-76
2023/04/19 04:49:48;;;;;;;4.10;2.20;;;8.70;99.90;;;;;;5052350;28;20208;-76
2023/04/19 04:52:14;;;;;;;4.17;2.20;;;9.30;99.90;;;;;;5051936;28;20206;-76
2023/04/19 04:54:40;;;;;;;5.75;2.17;;;10.10;99.90;;;;;;5051202;28;20583;-76
2023/04/19 04:57:05;;;;;;;4.85;1.98;;;10.90;99.90;;;;;;5046606;28;20224;-74
2023/04/19 04:59:31;;;;;;;3.40;1.70;;;11.50;99.90;;;;;;5050154;28;20372;-76
2023/04/19 05:01:57;;;;;;;7.38;2.25;;;11.90;99.90;;;;;;5051709;28;20290;-77
2023/04/19 05:04:23;;;;;;;5.20;2.10;;;12.20;99.90;;;;;;5049886;28;20207;-76
2023/04/19 05:06:49;;;;;;;4.53;1.80;;;12.30;99.90;;;;;;5051842;28;20277;-76
2023/04/19 05:09:14;;;;;;;2.25;1.50;;;12.50;99.90;;;;;;5051436;28;20706;-76
2023/04/19 05:11:40;;;;;;;4.68;2.03;;;12.40;99.90;;;;;;5051054;28;20211;-77
2023/04/19 05:14:05;;;;;;;3.53;1.92;;;12.90;99.90;;;;;;5051523;28;20234;-77
2023/04/19 05:16:32;;;;;;;3.60;1.70;;;13.00;99.90;;;;;;5051111;28;20307;-77
2023/04/19 05:18:57;;;;;;;5.90;1.88;;;12.50;99.90;;;;;;5050598;28;20194;-75
2023/04/19 05:21:23;;;;;;;4.20;2.08;;;12.60;99.90;;;;;;5044497;28;20662;-76
2023/04/19 05:23:49;;;;;;;3.50;1.45;;;12.80;99.90;;;;;;5051317;28;20287;-76
2023/04/19 05:26:14;;;;;;;3.85;2.10;;;13.50;99.90;;;;;;5051242;28;20211;-76
2023/04/19 05:28:41;;;;;;;4.28;1.90;;;13.50;99.90;;;;;;5047259;28;20229;-74
2023/04/19 05:31:10;;;;;;;3.22;1.92;;;13.60;99.90;;;;;;5051123;28;20199;-77
2023/04/19 05:33:35;;;;;;;3.53;2.00;;;14.30;99.90;;;;;;5050034;28;20213;-75
2023/04/19 05:36:01;;;;;;;6.60;2.15;;;14.70;99.90;;;;;;5047156;28;20223;-76
2023/04/19 05:38:27;;;;;;;5.65;1.90;;;14.50;99.90;;;;;;5050717;28;20211;-76
2023/04/19 05:40:52;;;;;;;4.97;2.00;;;14.40;99.90;;;;;;5050576;28;20285;-77
2023/04/19 05:43:18;;;;;;;5.95;1.80;;;14.70;99.90;;;;;;5050910;28;20211;-76
2023/04/19 05:45:43;;;;;;;4.18;1.98;;;15.10;99.90;;;;;;5049903;28;20221;-75
2023/04/19 05:48:09;;;;;;;3.45;1.88;;;15.10;99.90;;;;;;5049330;28;20250;-76
2023/04/19 05:50:35;;;;;;;3.67;2.10;;;14.90;99.90;;;;;;5050547;28;20220;-76
2023/04/19 05:53:01;;;;;;;4.65;1.98;;;14.90;99.90;;;;;;5050865;28;20235;-74
2023/04/19 05:55:27;;;;;;;4.63;1.92;;;15.30;99.90;;;;;;5047355;28;20203;-76
2023/04/19 05:57:53;;;;;;;2.45;1.42;;;15.40;99.90;;;;;;5046139;28;20183;-75
2023/04/19 06:00:18;;;;;;;5.28;1.98;;;15.60;99.90;;;;;;5046024;28;20570;-75
2023/04/19 06:02:44;;;;;;;3.70;2.10;;;15.40;99.90;;;;;;5050421;28;20216;-74
2023/04/19 06:05:10;;;;;;;4.38;1.85;;;15.60;99.90;;;;;;5048684;28;20631;-75
2023/04/19 06:07:35;;;;;;;5.20;1.90;;;15.70;99.90;;;;;;5042703;28;20216;-76
2023/04/19 06:10:01;;;;;;;3.10;1.50;;;16.20;99.90;;;;;;5050131;28;20175;-75
2023/04/19 06:12:27;;;;;;;5.35;1.60;;;16.30;99.90;;;;;;5050650;28;20642;-76
2023/04/19 06:14:52;;;;;;;4.53;2.60;;;16.10;99.90;;;;;;5050444;28;20298;-75
2023/04/19 06:17:23;;;;;;;3.92;1.63;;;16.40;99.90;;;;;;5049883;28;20302;-75
2023/04/19 06:19:49;;;;;;;2.53;1.45;;;16.80;99.90;;;;;;5049969;28;20207;-75
2023/04/19 06:22:15;;;;;;;4.85;1.90;;;16.40;99.90;;;;;;5050209;28;20223;-75
2023/04/19 06:24:42;;;;;;;4.72;1.65;;;16.30;99.90;;;;;;5046314;28;20638;-75
2023/04/19 06:27:08;;;;;;;4.57;2.08;;;16.60;99.90;;;;;;5049987;28;20223;-76
2023/04/19 06:29:34;;;;;;;2.72;1.77;;;17.90;99.90;;;;;;5049856;28;20713;-76
2023/04/19 06:31:59;;;;;;;3.22;1.88;;;18.00;99.90;;;;;;5050153;28;20307;-76
2023/04/19 06:34:25;;;;;;;5.88;1.63;;;17.70;99.90;;;;;;5043995;28;20314;-74
2023/04/19 06:36:50;;;;;;;3.85;1.77;;;16.80;99.90;;;;;;5043887;28;20224;-73
2023/04/19 06:39:16;;;;;;;4.10;1.92;;;17.00;99.90;;;;;;5049918;28;20670;-73
2023/04/19 06:41:42;;;;;;;4.28;2.13;;;17.40;99.90;;;;;;5049684;28;20299;-75
2023/04/19 06:44:07;;;;;;;3.42;1.98;;;17.50;99.90;;;;;;5049031;28;20232;-75
2023/04/19 06:46:33;;;;;;;3.28;1.42;;;17.90;99.90;;;;;;5049836;28;20707;-75
2023/04/19 06:48:59;;;;;;;4.63;1.50;;;17.00;99.90;;;;;;5049996;28;20171;-76
2023/04/19 06:51:24;;;;;;;2.10;1.33;;;16.70;99.90;;;;;;5046680;28;20199;-75
2023/04/19 06:53:50;;;;;;;4.78;1.67;;;17.20;99.90;;;;;;5050031;28;20246;-77
2023/04/19 06:56:16;;;;;;;2.28;1.42;;;17.50;99.90;;;;;;5049866;28;20203;-75
2023/04/19 06:58:41;;;;;;;4.28;1.70;;;18.00;99.90;;;;;;5048057;28;20302;-76
2023/04/19 07:01:07;;;;;;;3.03;1.70;;;18.70;99.90;;;;;;5045789;28;20180;-77
2023/04/19 07:03:33;;;;;;;3.95;1.77;;;18.20;99.90;;;;;;5046137;28;20218;-76
2023/04/19 07:05:58;;;;;;;2.50;1.38;;;17.60;99.90;;;;;;5049878;28;20294;-75
2023/04/19 07:08:25;;;;;;;5.28;1.70;;;17.60;99.90;;;;;;5046074;28;20208;-76
2023/04/19 07:10:51;;;;;;;3.00;1.58;;;18.40;99.90;;;;;;5050266;28;20211;-77
2023/04/19 07:13:17;;;;;;;3.53;1.73;;;18.30;99.90;;;;;;5040188;28;20208;-73
2023/04/19 07:15:43;;;;;;;3.40;1.75;;;18.60;99.90;;;;;;5050127;28;20286;-75
2023/04/19 07:18:13;;;;;;;4.13;1.40;;;19.30;99.90;;;;;;5049568;28;20212;-73
2023/04/19 07:20:43;;;;;;;3.22;1.48;;;19.60;99.90;;;;;;5046259;28;20211;-75
2023/04/19 07:23:09;;;;;;;6.53;2.00;;;19.30;99.70;;;;;;5046322;28;20208;-76
2023/04/19 07:25:35;;;;;;;4.50;1.98;;;18.70;99.60;;;;;;5048275;28;20222;-75
2023/04/19 07:28:00;;;;;;;4.78;1.80;;;19.10;98.70;;;;;;5047484;28;20176;-75
2023/04/19 07:30:26;;;;;;;5.47;2.25;;;20.00;96.80;;;;;;5047342;28;20249;-73
2023/04/19 07:32:52;;;;;;;2.63;1.80;;;19.40;97.40;;;;;;5049183;28;20207;-75
2023/04/19 07:35:18;;;;;;;3.33;1.50;;;19.30;96.90;;;;;;5049487;28;20211;-76
2023/04/19 07:37:43;;;;;;;5.28;2.00;;;19.60;97.00;;;;;;5049118;28;20310;-75
2023/04/19 07:40:10;;;;;;;5.40;1.70;;;20.10;96.30;;;;;;5045816;28;20176;-74
2023/04/19 07:42:35;;;;;;;3.75;1.55;;;20.90;95.20;;;;;;5053108;28;20176;-72
2023/04/19 07:45:01;;;;;;;3.72;1.60;;;21.10;94.50;;;;;;5049796;28;20195;-75
2023/04/19 07:47:27;;;;;;;1.73;1.45;;;20.90;93.60;;;;;;5052798;28;20257;-72
2023/04/19 07:49:54;;;;;;;4.38;1.90;;;20.60;93.20;;;;;;5053010;28;20734;-75
2023/04/19 07:52:20;;;;;;;3.42;2.58;;;20.80;93.30;;;;;;5052983;28;20254;-75
2023/04/19 07:54:46;;;;;;;4.05;1.92;;;21.60;93.10;;;;;;5053055;28;20654;-75
2023/04/19 07:57:11;;;;;;;3.53;2.08;;;20.50;92.10;;;;;;5053004;28;20655;-76
2023/04/19 07:59:37;;;;;;;4.43;2.22;;;21.10;93.20;;;;;;5047149;28;20204;-75
2023/04/19 08:02:02;;;;;;;4.07;1.83;;;21.00;92.40;;;;;;5052846;28;20312;-75
2023/04/19 08:04:28;;;;;;;4.75;2.22;;;22.00;92.00;;;;;;5052479;28;20728;-74
2023/04/19 08:06:54;;;;;;;3.97;1.83;;;22.10;91.10;;;;;;5053019;28;20203;-76
2023/04/19 08:09:19;;;;;;;4.53;1.80;;;21.40;90.50;;;;;;5052877;28;20214;-74
2023/04/19 08:11:45;;;;;;;8.65;3.50;;;20.50;91.30;;;;;;5052138;28;20650;-74
2023/04/19 08:14:11;;;;;;;5.97;2.15;;;19.00;91.20;;;;;;5049388;28;20200;-74
2023/04/19 08:16:36;;;;;;;4.03;1.80;;;18.00;92.10;;;;;;5052554;28;20298;-76
2023/04/19 08:19:02;;;;;;;4.50;1.95;;;17.50;93.30;;;;;;5051975;28;20548;-75
2023/04/19 08:21:27;;;;;;;4.47;1.63;;;17.10;93.50;;;;;;5049142;28;20176;-76
2023/04/19 08:23:53;;;;;;;5.22;1.80;;;16.50;93.90;;;;;;5052325;28;20261;-74
2023/04/19 08:26:19;;;;;;;3.45;1.85;;;16.10;95.10;;;;;;5048517;28;20234;-75
2023/04/19 08:28:44;;;;;;;4.88;1.90;;;16.40;95.50;;;;;;5051425;28;20234;-76
2023/04/19 08:31:10;;;;;;;3.85;2.08;;;16.10;95.70;;;;;;5052256;28;20192;-74
2023/04/19 08:33:35;;;;;;;2.88;1.70;;;15.90;94.80;;;;;;5052749;28;20175;-78
2023/04/19 08:36:01;;;;;;;2.95;2.15;;;15.60;96.20;;;;;;5052097;28;20211;-75
2023/04/19 08:38:27;;;;;;;8.60;4.10;;;15.00;96.50;;;;;;5052236;28;20230;-75
2023/04/19 08:40:56;;;;;;;5.40;2.78;;;15.30;97.20;;;;;;5049288;28;20257;-75
2023/04/19 08:43:24;;;;;;;4.68;2.53;;;15.30;96.20;;;;;;5052286;28;20215;-76
2023/04/19 08:45:50;;;;;;;4.05;2.28;;;15.40;96.70;;;;;;5044469;28;20200;-75
2023/04/19 08:48:17;;;;;;;6.47;3.17;;;14.80;96.90;;;;;;5051825;28;20290;-76
2023/04/19 08:50:45;;;;;;;4.97;2.85;;;14.50;98.20;;;;;;5051482;28;20208;-76
2023/04/19 08:53:11;;;;;;;9.02;5.90;;;14.80;97.90;;;;;;5050987;28;20555;-75
2023/04/19 08:55:39;;;;;;;9.30;4.35;;;14.90;98.10;;;;;;5051631;28;20207;-76
2023/04/19 08:58:05;;;;;;;9.32;3.28;;;14.70;98.10;;;;;;5047089;28;20342;-75
2023/04/19 09:00:37;;;;;;;5.88;2.25;;;14.60;98.70;;;;;;5052177;28;20662;-76
2023/04/19 09:03:06;;;;;;;3.90;2.15;;;14.00;98.80;;;;;;5045667;28;20289;-76
2023/04/19 09:05:32;;;;;;;5.07;2.33;;;14.00;99.60;;;;;;5051227;28;20676;-73
2023/04/19 09:08:34;;;;;;;6.78;2.97;;;13.90;99.90;;;;;;5051470;28;20211;-75
2023/04/19 09:11:01;;;;;;;5.05;2.22;;;13.60;99.90;;;;;;5046551;28;20345;-75
2023/04/19 09:13:28;;;;;;;3.97;2.08;;;13.40;99.90;;;;;;5051329;28;20698;-75
2023/04/19 09:15:56;;;;;;;5.65;2.78;;;13.40;99.90;;;;;;5051527;28;20202;-75
2023/04/19 09:18:23;;;;;;;7.32;3.25;;;13.30;99.90;;;;;;5051456;28;20199;-75
2023/04/19 09:20:49;;;;;;;5.78;2.33;;;13.50;99.90;;;;;;5051208;28;20204;-75
2023/04/19 09:23:17;;;;;;;5.40;2.15;;;14.00;99.90;;;;;;5051364;28;20259;-74
2023/04/19 09:25:56;;;;;;;8.63;2.75;;;14.20;99.90;;;;;;5050819;28;20223;-75
2023/04/19 09:28:22;;;;;;;6.88;2.70;;;14.50;99.90;;;;;;5048270;28;20211;-76
2023/04/19 09:30:48;;;;;;;3.63;2.22;;;14.50;99.80;;;;;;5050433;28;20277;-76
2023/04/19 09:33:32;;;;;;;8.30;2.53;;;14.50;99.40;;;;;;5050814;28;20207;-76
2023/04/19 09:35:59;;;;;;;9.20;2.47;;;15.00;99.10;;;;;;5050810;28;20609;-74
2023/04/19 09:38:25;;;;;;;3.13;2.30;;;14.90;98.40;;;;;;5050741;28;20219;-75
2023/04/19 09:40:50;;;;;;;6.20;2.20;;;14.00;99.00;;;;;;5050715;28;20327;-73
2023/04/19 09:43:24;;;;;;;5.63;2.13;;;13.60;99.90;;;;;;5047532;28;20214;-75
2023/04/19 09:45:50;;;;;;;6.25;2.28;;;13.80;99.90;;;;;;5048000;28;20249;-75
2023/04/19 09:48:16;;;;;;;8.45;2.67;;;13.90;99.90;;;;;;5048039;28;20585;-75
2023/04/19 09:50:59;;;;;;;4.65;2.00;;;14.60;99.90;;;;;;5050304;28;20273;-74
2023/04/19 09:53:26;;;;;;;4.28;2.20;;;14.40;99.70;;;;;;5048578;28;20199;-73
2023/04/19 09:55:52;;;;;;;5.32;2.60;;;14.20;99.70;;;;;;5048427;28;20211;-76
2023/04/19 09:58:20;;;;;;;3.38;1.92;;;14.70;99.80;;;;;;5046747;28;20208;-76
2023/04/19 10:00:47;;;;;;;5.07;2.70;;;15.00;99.40;;;;;;5049861;28;20549;-74
2023/04/19 10:03:16;;;;;;;3.85;2.33;;;14.80;98.90;;;;;;5052697;28;20203;-75
2023/04/19 10:05:43;;;;;;;4.68;2.40;;;14.40;99.00;;;;;;5051412;28;20216;-75
2023/04/19 10:08:11;;;;;;;5.03;2.50;;;14.30;99.70;;;;;;5051251;28;20215;-77
2023/04/19 10:10:39;;;;;;;5.35;2.33;;;14.40;99.80;;;;;;5050692;28;20226;-75
2023/04/19 10:13:07;;;;;;;5.88;2.70;;;14.50;99.40;;;;;;5050750;28;20179;-74
2023/04/19 10:15:36;;;;;;;5.03;2.30;;;14.50;99.50;;;;;;5043344;28;20213;-74
2023/04/19 10:18:06;;;;;;;8.60;2.42;;;14.70;99.70;;;;;;5042026;28;20210;-75
2023/04/19 10:20:40;;;;;;;7.07;2.70;;;14.90;99.50;;;;;;5050294;28;20755;-76
2023/04/19 10:23:08;;;;;;;5.60;2.10;;;15.10;99.20;;;;;;5048090;28;20202;-76
2023/04/19 10:25:36;;;;;;;7.05;2.45;;;15.10;99.70;;;;;;5050385;28;20586;-75
2023/04/19 10:28:02;;;;;;;6.18;2.80;;;14.90;99.60;;;;;;5050051;28;20199;-76
2023/04/19 10:30:27;;;;;;;4.00;2.80;;;15.30;99.60;;;;;;5050453;28;20211;-75
2023/04/19 10:32:55;;;;;;;5.65;2.60;;;15.30;99.30;;;;;;5050102;28;20203;-76
2023/04/19 10:35:31;;;;;;;5.35;2.33;;;15.00;99.20;;;;;;5049796;28;20210;-75
2023/04/19 10:38:05;;;;;;;9.10;3.25;;;15.00;98.70;;;;;;5050025;28;20218;-76
2023/04/19 10:40:50;;;;;;;7.38;3.95;;;14.20;99.20;;;;;;5050082;28;20558;-74
2023/04/19 10:43:17;;;;;;;8.90;3.28;;;14.50;99.60;;;;;;5050101;28;20299;-75
2023/04/19 10:45:44;;;;;;;5.40;2.63;;;14.50;99.80;;;;;;5049571;28;20813;-75
2023/04/19 10:48:34;;;;;;;9.15;2.60;;;14.60;99.80;;;;;;5050640;28;20345;-75
2023/04/19 10:51:19;;;;;;;6.40;2.33;;;14.40;99.50;;;;;;5049637;28;20295;-75
2023/04/19 10:53:56;;;;;;;7.10;2.63;;;14.10;99.60;;;;;;5046002;28;20211;-75
2023/04/19 10:56:34;;;;;;;4.72;2.67;;;14.00;99.90;;;;;;5050202;28;20333;-75
2023/04/19 10:59:00;;;;;;;6.63;3.00;;;14.10;99.50;;;;;;5045763;28;20751;-76
2023/04/19 11:01:47;;;;;;;4.45;2.28;;;14.40;99.70;;;;;;5050114;28;20211;-76
2023/04/19 11:04:31;;;;;;;3.50;2.47;;;14.50;99.50;;;;;;5047209;28;20642;-74
2023/04/19 11:07:01;;;;;;;3.97;2.47;;;14.70;99.40;;;;;;5044366;28;20195;-74
2023/04/19 11:09:37;;;;;;;4.05;2.20;;;14.40;99.20;;;;;;5050465;28;20174;-74
2023/04/19 11:12:11;;;;;;;3.95;2.50;;;14.30;99.70;;;;;;5045364;28;20212;-74
2023/04/19 11:14:43;;;;;;;5.88;3.25;;;14.40;99.80;;;;;;5049942;28;20257;-75
2023/04/19 11:17:18;;;;;;;4.20;2.58;;;13.90;99.90;;;;;;5052845;28;20704;-74
2023/04/19 11:19:51;;;;;;;4.25;2.17;;;14.10;99.90;;;;;;5052372;28;20215;-76
2023/04/19 11:22:17;;;;;;;3.88;2.20;;;14.30;99.90;;;;;;5052791;28;20291;-73
2023/04/19 11:24:48;;;;;;;9.73;2.90;;;14.50;99.90;;;;;;5053955;28;20701;-75
2023/04/19 11:27:14;;;;;;;6.60;2.50;;;14.50;99.90;;;;;;5053355;28;20214;-76
2023/04/19 11:29:39;;;;;;;8.77;3.10;;;14.50;99.90;;;;;;5049790;28;20203;-75
2023/04/19 11:32:05;;;;;;;6.32;2.95;;;14.50;99.90;;;;;;5045549;28;20220;-76
2023/04/19 11:34:40;;;;;;;3.97;2.45;;;14.40;99.90;;;;;;5053615;28;20208;-76
2023/04/19 11:37:07;;;;;;;8.07;2.92;;;14.00;99.90;;;;;;5045872;28;20693;-76
2023/04/19 11:39:32;;;;;;;7.93;3.33;;;13.90;99.90;;;;;;5053750;28;20551;-76
2023/04/19 11:41:58;;;;;;;6.20;2.72;;;14.10;99.90;;;;;;5052157;28;20210;-76
2023/04/19 11:44:24;;;;;;;4.70;2.78;;;13.90;99.90;;;;;;5050403;28;20200;-77
2023/04/19 11:47:10;;;;;;;8.35;2.78;;;13.90;99.90;;;;;;5050511;28;20350;-75
2023/04/19 11:49:35;;;;;;;5.60;2.20;;;13.90;99.90;;;;;;5050746;28;20257;-76
2023/04/19 11:52:05;;;;;;;7.43;2.45;;;14.10;99.90;;;;;;5052812;28;20223;-77
2023/04/19 11:54:30;;;;;;;3.63;2.47;;;14.20;99.90;;;;;;5053217;28;20225;-76
2023/04/19 11:57:06;;;;;;;4.13;2.47;;;14.20;99.90;;;;;;5053027;28;20208;-76
2023/04/19 11:59:34;;;;;;;5.90;2.95;;;14.00;99.90;;;;;;5052801;28;20206;-77
2023/04/19 12:02:11;;;;;;;5.03;2.47;;;14.00;99.90;;;;;;5052458;28;20208;-75
2023/04/19 12:04:37;;;;;;;6.40;2.72;;;13.90;99.90;;;;;;5052668;28;20203;-76
2023/04/19 12:07:05;;;;;;;6.20;2.78;;;13.80;99.90;;;;;;5052607;28;20196;-76
2023/04/19 12:09:35;;;;;;;4.95;3.35;;;13.80;99.90;;;;;;5053318;28;20221;-77
2023/04/19 12:12:02;;;;;;;5.15;2.70;;;13.90;99.90;;;;;;5048797;28;20211;-76
2023/04/19 12:14:29;;;;;;;4.47;2.28;;;14.00;99.90;;;;;;5052879;28;20219;-75
2023/04/19 12:17:10;;;;;;;10.35;2.92;;;13.70;99.90;;;;;;5052267;28;20207;-77
2023/04/19 12:19:41;;;;;;;4.15;2.30;;;13.80;99.90;;;;;;5052629;28;20215;-77
2023/04/19 12:22:09;;;;;;;6.88;3.53;;;13.80;99.90;;;;;;5052331;28;20558;-75
2023/04/19 12:24:34;;;;;;;6.35;3.20;;;13.80;99.90;;;;;;5052825;28;20176;-74
2023/04/19 12:27:00;;;;;;;7.43;2.50;;;14.10;99.90;;;;;;5051510;28;20349;-75
2023/04/19 12:29:26;;;;;;;7.20;2.85;;;14.10;99.90;;;;;;5047462;28;20212;-75
2023/04/19 12:31:52;;;;;;;5.15;3.03;;;13.70;99.90;;;;;;5049840;28;20230;-77
2023/04/19 12:34:18;;;;;;;6.85;2.88;;;13.80;99.90;;;;;;5047940;28;20216;-75
2023/04/19 12:36:43;;;;;;;8.70;3.00;;;14.10;99.90;;;;;;5052967;28;20227;-74
2023/04/19 12:39:09;;;;;;;7.60;3.22;;;14.20;99.90;;;;;;5051948;28;20207;-76
2023/04/19 12:41:35;;;;;;;12.70;3.45;;;14.00;99.90;;;;;;5051961;28;20205;-77
2023/04/19 12:44:00;;;;;;;7.35;2.97;;;14.10;99.90;;;;;;5051311;28;20210;-76
2023/04/19 12:46:26;;;;;;;5.80;2.60;;;14.20;99.90;;;;;;5052026;28;20212;-77
2023/04/19 12:48:51;;;;;;;6.22;2.75;;;14.10;99.90;;;;;;5048257;28;20176;-76